sensor_id;sensor_type;location;lat;lon;timestamp;pressure;altitude;pressure_sealevel;temperature;humidity
6204;BME280;3135;42.602;23.468;2022-10-16T00:00:44;93636.13;;;9.63;100.00
6204;BME280;3135;42.602;23.468;2022-10-16T00:03:11;93644.34;;;9.46;100.00
6204;BME280;3135;42.602;23.468;2022-10-16T00:05:41;93632.59;;;9.42;100.00
6204;BME280;3135;42.602;23.468;2022-10-16T00:08:08;93642.47;;;9.42;100.00
6204;BME280;3135;42.602;23.468;2022-10-16T00:10:34;93638.69;;;9.28;100.00
6204;BME280;3135;42.602;23.468;2022-10-16T00:13:00;93640.75;;;9.20;100.00
6204;BME280;3135;42.602;23.468;2022-10-16T00:15:25;93652.50;;;9.19;100.00
6204;BME280;3135;42.602;23.468;2022-10-16T00:17:51;93662.91;;;9.21;100.00
6204;BME280;3135;42.602;23.468;2022-10-16T00:20:16;93644.13;;;9.01;100.00
6204;BME280;3135;42.602;23.468;2022-10-16T00:22:42;93652.63;;;8.92;100.00
6204;BME280;3135;42.602;23.468;2022-10-16T00:25:07;93649.13;;;8.87;100.00
6204;BME280;3135;42.602;23.468;2022-10-16T00:27:33;93648.28;;;8.81;100.00
6204;BME280;3135;42.602;23.468;2022-10-16T00:29:59;93650.34;;;8.74;100.00
6204;BME280;3135;42.602;23.468;2022-10-16T00:32:24;93655.50;;;8.86;100.00
6204;BME280;3135;42.602;23.468;2022-10-16T00:34:50;93654.97;;;8.89;100.00
6204;BME280;3135;42.602;23.468;2022-10-16T00:37:15;93653.91;;;8.85;100.00
6204;BME280;3135;42.602;23.468;2022-10-16T00:39:41;93649.66;;;8.89;100.00
6204;BME280;3135;42.602;23.468;2022-10-16T00:42:06;93649.97;;;8.98;100.00
6204;BME280;3135;42.602;23.468;2022-10-16T00:44:42;93678.03;;;9.05;100.00
6204;BME280;3135;42.602;23.468;2022-10-16T00:47:15;93666.22;;;8.96;100.00
6204;BME280;3135;42.602;23.468;2022-10-16T00:49:42;93660.31;;;8.89;100.00
6204;BME280;3135;42.602;23.468;2022-10-16T00:52:09;93659.84;;;8.97;100.00
6204;BME280;3135;42.602;23.468;2022-10-16T00:54:35;93667.28;;;8.90;100.00
6204;BME280;3135;42.602;23.468;2022-10-16T00:57:04;93680.41;;;9.02;100.00
6204;BME280;3135;42.602;23.468;2022-10-16T00:59:33;93673.41;;;8.90;100.00
6204;BME280;3135;42.602;23.468;2022-10-16T01:01:59;93668.28;;;8.84;100.00
6204;BME280;3135;42.602;23.468;2022-10-16T01:04:26;93676.03;;;8.85;100.00
6204;BME280;3135;42.602;23.468;2022-10-16T01:07:06;93679.53;;;8.91;100.00
6204;BME280;3135;42.602;23.468;2022-10-16T01:09:57;93671.69;;;8.74;100.00
6204;BME280;3135;42.602;23.468;2022-10-16T01:15:34;93678.88;;;8.74;100.00
6204;BME280;3135;42.602;23.468;2022-10-16T01:20:54;93689.03;;;8.77;100.00
6204;BME280;3135;42.602;23.468;2022-10-16T01:26:10;93678.47;;;8.55;100.00
6204;BME280;3135;42.602;23.468;2022-10-16T01:31:10;93650.78;;;8.24;100.00
6204;BME280;3135;42.602;23.468;2022-10-16T01:33:45;93662.94;;;8.47;100.00
6204;BME280;3135;42.602;23.468;2022-10-16T01:36:18;93647.34;;;8.28;100.00
6204;BME280;3135;42.602;23.468;2022-10-16T01:38:47;93656.63;;;8.26;100.00
6204;BME280;3135;42.602;23.468;2022-10-16T01:41:19;93642.16;;;8.16;100.00
6204;BME280;3135;42.602;23.468;2022-10-16T01:43:49;93642.16;;;8.16;100.00
6204;BME280;3135;42.602;23.468;2022-10-16T01:46:20;93658.06;;;8.06;100.00
6204;BME280;3135;42.602;23.468;2022-10-16T01:48:46;93674.13;;;8.16;100.00
6204;BME280;3135;42.602;23.468;2022-10-16T01:51:15;93659.56;;;8.24;100.00
6204;BME280;3135;42.602;23.468;2022-10-16T01:53:43;93651.25;;;8.20;100.00
6204;BME280;3135;42.602;23.468;2022-10-16T01:56:12;93649.09;;;8.17;100.00
6204;BME280;3135;42.602;23.468;2022-10-16T01:58:49;93669.19;;;8.30;100.00
6204;BME280;3135;42.602;23.468;2022-10-16T02:01:19;93656.97;;;8.34;100.00
6204;BME280;3135;42.602;23.468;2022-10-16T02:03:50;93661.59;;;8.44;100.00
6204;BME280;3135;42.602;23.468;2022-10-16T02:06:17;93665.88;;;8.45;100.00
6204;BME280;3135;42.602;23.468;2022-10-16T02:08:42;93651.25;;;8.20;100.00
6204;BME280;3135;42.602;23.468;2022-10-16T02:11:09;93652.94;;;8.32;100.00
6204;BME280;3135;42.602;23.468;2022-10-16T02:13:59;93665.56;;;8.41;100.00
6204;BME280;3135;42.602;23.468;2022-10-16T02:16:37;93668.81;;;8.43;100.00
6204;BME280;3135;42.602;23.468;2022-10-16T02:19:03;93644.78;;;8.11;100.00
6204;BME280;3135;42.602;23.468;2022-10-16T02:24:15;93685.91;;;8.26;100.00
6204;BME280;3135;42.602;23.468;2022-10-16T02:26:50;93676.03;;;8.21;100.00
6204;BME280;3135;42.602;23.468;2022-10-16T02:29:20;93685.25;;;8.13;100.00
6204;BME280;3135;42.602;23.468;2022-10-16T02:31:50;93692.09;;;8.04;100.00
6204;BME280;3135;42.602;23.468;2022-10-16T02:34:18;93678.44;;;8.23;100.00
6204;BME280;3135;42.602;23.468;2022-10-16T02:36:48;93676.88;;;8.27;100.00
6204;BME280;3135;42.602;23.468;2022-10-16T02:39:15;93686.69;;;8.21;100.00
6204;BME280;3135;42.602;23.468;2022-10-16T02:41:42;93691.28;;;8.31;100.00
6204;BME280;3135;42.602;23.468;2022-10-16T02:44:08;93703.16;;;8.45;100.00
6204;BME280;3135;42.602;23.468;2022-10-16T02:46:33;93674.13;;;8.16;100.00
6204;BME280;3135;42.602;23.468;2022-10-16T02:48:59;93689.00;;;8.12;100.00
6204;BME280;3135;42.602;23.468;2022-10-16T02:51:24;93691.66;;;8.12;100.00
6204;BME280;3135;42.602;23.468;2022-10-16T02:53:49;93703.72;;;8.20;100.00
6204;BME280;3135;42.602;23.468;2022-10-16T02:56:15;93700.88;;;8.32;100.00
6204;BME280;3135;42.602;23.468;2022-10-16T02:58:40;93704.56;;;8.26;100.00
6204;BME280;3135;42.602;23.468;2022-10-16T03:01:06;93696.94;;;8.07;100.00
6204;BME280;3135;42.602;23.468;2022-10-16T03:03:31;93706.72;;;8.02;100.00
6204;BME280;3135;42.602;23.468;2022-10-16T03:05:57;93696.13;;;8.07;100.00
6204;BME280;3135;42.602;23.468;2022-10-16T03:08:22;93699.97;;;7.67;100.00
6204;BME280;3135;42.602;23.468;2022-10-16T03:10:50;93710.63;;;7.94;100.00
6204;BME280;3135;42.602;23.468;2022-10-16T03:13:16;93697.84;;;7.91;100.00
6204;BME280;3135;42.602;23.468;2022-10-16T03:15:42;93690.94;;;7.46;100.00
6204;BME280;3135;42.602;23.468;2022-10-16T03:18:08;93701.16;;;7.54;100.00
6204;BME280;3135;42.602;23.468;2022-10-16T03:20:33;93703.06;;;7.59;100.00
6204;BME280;3135;42.602;23.468;2022-10-16T03:22:59;93704.28;;;7.51;100.00
6204;BME280;3135;42.602;23.468;2022-10-16T03:25:24;93702.28;;;7.20;100.00
6204;BME280;3135;42.602;23.468;2022-10-16T03:27:50;93709.06;;;7.10;100.00
6204;BME280;3135;42.602;23.468;2022-10-16T03:30:15;93694.56;;;7.18;100.00
6204;BME280;3135;42.602;23.468;2022-10-16T03:32:44;93710.47;;;7.35;100.00
6204;BME280;3135;42.602;23.468;2022-10-16T03:35:10;93705.97;;;7.35;100.00
6204;BME280;3135;42.602;23.468;2022-10-16T03:37:35;93696.56;;;7.28;100.00
6204;BME280;3135;42.602;23.468;2022-10-16T03:40:02;93709.91;;;7.33;100.00
6204;BME280;3135;42.602;23.468;2022-10-16T03:42:27;93694.53;;;7.35;100.00
6204;BME280;3135;42.602;23.468;2022-10-16T03:44:53;93699.75;;;7.08;100.00
6204;BME280;3135;42.602;23.468;2022-10-16T03:47:18;93702.22;;;7.14;100.00
6204;BME280;3135;42.602;23.468;2022-10-16T03:49:47;93694.75;;;7.11;100.00
6204;BME280;3135;42.602;23.468;2022-10-16T03:52:12;93712.66;;;6.99;100.00
6204;BME280;3135;42.602;23.468;2022-10-16T03:54:38;93707.25;;;6.94;100.00
6204;BME280;3135;42.602;23.468;2022-10-16T03:57:03;93706.22;;;6.95;100.00
6204;BME280;3135;42.602;23.468;2022-10-16T03:59:29;93699.84;;;6.96;100.00
6204;BME280;3135;42.602;23.468;2022-10-16T04:01:54;93699.94;;;7.01;100.00
6204;BME280;3135;42.602;23.468;2022-10-16T04:04:20;93706.41;;;7.10;100.00
6204;BME280;3135;42.602;23.468;2022-10-16T04:06:45;93697.09;;;6.91;100.00
6204;BME280;3135;42.602;23.468;2022-10-16T04:09:10;93689.88;;;6.86;100.00
6204;BME280;3135;42.602;23.468;2022-10-16T04:11:36;93703.19;;;6.70;100.00
6204;BME280;3135;42.602;23.468;2022-10-16T04:14:01;93706.09;;;6.68;100.00
6204;BME280;3135;42.602;23.468;2022-10-16T04:16:27;93706.72;;;6.75;100.00
6204;BME280;3135;42.602;23.468;2022-10-16T04:18:52;93715.72;;;6.91;100.00
6204;BME280;3135;42.602;23.468;2022-10-16T04:21:17;93708.25;;;6.88;100.00
6204;BME280;3135;42.602;23.468;2022-10-16T04:23:43;93711.19;;;6.91;100.00
6204;BME280;3135;42.602;23.468;2022-10-16T04:26:08;93697.03;;;6.86;100.00
6204;BME280;3135;42.602;23.468;2022-10-16T04:28:35;93704.25;;;7.07;100.00
6204;BME280;3135;42.602;23.468;2022-10-16T04:31:04;93713.59;;;7.10;100.00
6204;BME280;3135;42.602;23.468;2022-10-16T04:33:29;93711.25;;;7.13;100.00
6204;BME280;3135;42.602;23.468;2022-10-16T04:35:58;93722.41;;;7.32;100.00
6204;BME280;3135;42.602;23.468;2022-10-16T04:38:25;93711.91;;;7.21;100.00
6204;BME280;3135;42.602;23.468;2022-10-16T04:40:50;93723.94;;;7.28;100.00
6204;BME280;3135;42.602;23.468;2022-10-16T04:43:16;93729.16;;;7.40;100.00
6204;BME280;3135;42.602;23.468;2022-10-16T04:45:41;93729.63;;;7.37;100.00
6204;BME280;3135;42.602;23.468;2022-10-16T04:48:06;93716.75;;;7.29;100.00
6204;BME280;3135;42.602;23.468;2022-10-16T04:50:32;93739.00;;;7.39;100.00
6204;BME280;3135;42.602;23.468;2022-10-16T04:52:57;93729.50;;;7.27;100.00
6204;BME280;3135;42.602;23.468;2022-10-16T04:55:23;93728.88;;;7.20;100.00
6204;BME280;3135;42.602;23.468;2022-10-16T04:57:48;93729.56;;;6.93;100.00
6204;BME280;3135;42.602;23.468;2022-10-16T05:00:14;93725.69;;;7.01;100.00
6204;BME280;3135;42.602;23.468;2022-10-16T05:02:40;93745.66;;;7.03;100.00
6204;BME280;3135;42.602;23.468;2022-10-16T05:05:06;93742.34;;;7.13;100.00
6204;BME280;3135;42.602;23.468;2022-10-16T05:07:32;93739.59;;;7.25;100.00
6204;BME280;3135;42.602;23.468;2022-10-16T05:09:57;93750.31;;;7.30;100.00
6204;BME280;3135;42.602;23.468;2022-10-16T05:12:23;93748.88;;;7.05;100.00
6204;BME280;3135;42.602;23.468;2022-10-16T05:14:48;93759.09;;;7.13;100.00
6204;BME280;3135;42.602;23.468;2022-10-16T05:17:14;93744.53;;;7.16;100.00
6204;BME280;3135;42.602;23.468;2022-10-16T05:19:39;93768.34;;;7.28;100.00
6204;BME280;3135;42.602;23.468;2022-10-16T05:22:04;93770.00;;;7.34;100.00
6204;BME280;3135;42.602;23.468;2022-10-16T05:24:30;93755.25;;;7.43;100.00
6204;BME280;3135;42.602;23.468;2022-10-16T05:26:56;93751.38;;;7.51;100.00
6204;BME280;3135;42.602;23.468;2022-10-16T05:29:21;93758.53;;;7.50;100.00
6204;BME280;3135;42.602;23.468;2022-10-16T05:31:50;93778.59;;;7.58;100.00
6204;BME280;3135;42.602;23.468;2022-10-16T05:34:15;93773.50;;;7.56;100.00
6204;BME280;3135;42.602;23.468;2022-10-16T05:36:40;93769.19;;;7.50;100.00
6204;BME280;3135;42.602;23.468;2022-10-16T05:39:06;93763.19;;;7.60;100.00
6204;BME280;3135;42.602;23.468;2022-10-16T05:41:31;93783.19;;;7.62;100.00
6204;BME280;3135;42.602;23.468;2022-10-16T05:43:57;93763.50;;;7.63;100.00
6204;BME280;3135;42.602;23.468;2022-10-16T05:46:22;93761.22;;;7.72;100.00
6204;BME280;3135;42.602;23.468;2022-10-16T05:48:48;93766.34;;;7.79;100.00
6204;BME280;3135;42.602;23.468;2022-10-16T05:51:14;93760.53;;;7.82;100.00
6204;BME280;3135;42.602;23.468;2022-10-16T05:53:40;93771.78;;;7.89;100.00
6204;BME280;3135;42.602;23.468;2022-10-16T05:56:08;93774.06;;;8.02;100.00
6204;BME280;3135;42.602;23.468;2022-10-16T05:58:36;93780.19;;;8.03;100.00
6204;BME280;3135;42.602;23.468;2022-10-16T06:01:07;93795.19;;;7.87;100.00
6204;BME280;3135;42.602;23.468;2022-10-16T06:03:33;93779.88;;;7.99;100.00
6204;BME280;3135;42.602;23.468;2022-10-16T06:05:59;93776.63;;;8.14;100.00
6204;BME280;3135;42.602;23.468;2022-10-16T06:08:24;93782.59;;;8.26;100.00
6204;BME280;3135;42.602;23.468;2022-10-16T06:11:04;93788.56;;;8.11;100.00
6204;BME280;3135;42.602;23.468;2022-10-16T06:13:30;93797.03;;;8.08;100.00
6204;BME280;3135;42.602;23.468;2022-10-16T06:15:57;93802.38;;;7.86;100.00
6204;BME280;3135;42.602;23.468;2022-10-16T06:18:23;93812.22;;;7.86;100.00
6204;BME280;3135;42.602;23.468;2022-10-16T06:20:48;93807.75;;;7.53;100.00
6204;BME280;3135;42.602;23.468;2022-10-16T06:23:14;93816.19;;;7.66;100.00
6204;BME280;3135;42.602;23.468;2022-10-16T06:25:39;93819.16;;;7.87;100.00
6204;BME280;3135;42.602;23.468;2022-10-16T06:28:05;93824.69;;;7.63;100.00
6204;BME280;3135;42.602;23.468;2022-10-16T06:30:30;93821.53;;;7.66;100.00
6204;BME280;3135;42.602;23.468;2022-10-16T06:32:55;93814.13;;;7.90;100.00
6204;BME280;3135;42.602;23.468;2022-10-16T06:35:21;93818.91;;;8.10;100.00
6204;BME280;3135;42.602;23.468;2022-10-16T06:37:47;93834.63;;;8.34;100.00
6204;BME280;3135;42.602;23.468;2022-10-16T06:40:12;93824.81;;;8.17;100.00
6204;BME280;3135;42.602;23.468;2022-10-16T06:42:39;93813.56;;;8.10;100.00
6204;BME280;3135;42.602;23.468;2022-10-16T06:45:05;93842.84;;;8.32;100.00
6204;BME280;3135;42.602;23.468;2022-10-16T06:47:31;93847.06;;;8.50;100.00
6204;BME280;3135;42.602;23.468;2022-10-16T06:49:56;93839.69;;;8.35;100.00
6204;BME280;3135;42.602;23.468;2022-10-16T06:52:22;93836.59;;;8.22;100.00
6204;BME280;3135;42.602;23.468;2022-10-16T06:54:47;93836.47;;;8.33;100.00
6204;BME280;3135;42.602;23.468;2022-10-16T06:57:12;93837.63;;;8.64;100.00
6204;BME280;3135;42.602;23.468;2022-10-16T06:59:38;93844.41;;;8.50;100.00
6204;BME280;3135;42.602;23.468;2022-10-16T07:02:03;93821.22;;;8.51;100.00
6204;BME280;3135;42.602;23.468;2022-10-16T07:04:29;93860.47;;;8.60;100.00
6204;BME280;3135;42.602;23.468;2022-10-16T07:06:54;93856.78;;;8.61;100.00
6204;BME280;3135;42.602;23.468;2022-10-16T07:09:19;93857.56;;;8.89;100.00
6204;BME280;3135;42.602;23.468;2022-10-16T07:11:45;93855.06;;;9.04;100.00
6204;BME280;3135;42.602;23.468;2022-10-16T07:14:18;93869.53;;;9.13;100.00
6204;BME280;3135;42.602;23.468;2022-10-16T07:16:44;93856.63;;;9.00;100.00
6204;BME280;3135;42.602;23.468;2022-10-16T07:19:10;93856.66;;;9.05;100.00
6204;BME280;3135;42.602;23.468;2022-10-16T07:21:37;93869.72;;;9.34;100.00
6204;BME280;3135;42.602;23.468;2022-10-16T07:24:05;93857.59;;;9.21;100.00
6204;BME280;3135;42.602;23.468;2022-10-16T07:26:33;93876.16;;;9.38;100.00
6204;BME280;3135;42.602;23.468;2022-10-16T07:28:59;93872.53;;;9.54;100.00
6204;BME280;3135;42.602;23.468;2022-10-16T07:31:26;93864.50;;;9.54;100.00
6204;BME280;3135;42.602;23.468;2022-10-16T07:33:52;93867.84;;;9.71;100.00
6204;BME280;3135;42.602;23.468;2022-10-16T07:36:19;93881.78;;;9.79;100.00
6204;BME280;3135;42.602;23.468;2022-10-16T07:38:45;93887.00;;;10.06;100.00
6204;BME280;3135;42.602;23.468;2022-10-16T07:41:13;93893.31;;;10.32;100.00
6204;BME280;3135;42.602;23.468;2022-10-16T07:43:39;93885.84;;;10.39;100.00
6204;BME280;3135;42.602;23.468;2022-10-16T07:46:04;93894.19;;;10.47;100.00
6204;BME280;3135;42.602;23.468;2022-10-16T07:48:32;93894.78;;;10.60;100.00
6204;BME280;3135;42.602;23.468;2022-10-16T07:51:03;93879.56;;;10.75;100.00
6204;BME280;3135;42.602;23.468;2022-10-16T07:53:29;93881.75;;;10.89;100.00
6204;BME280;3135;42.602;23.468;2022-10-16T07:56:00;93891.69;;;11.24;100.00
6204;BME280;3135;42.602;23.468;2022-10-16T07:58:27;93890.66;;;11.30;100.00
6204;BME280;3135;42.602;23.468;2022-10-16T08:00:53;93884.50;;;11.50;100.00
6204;BME280;3135;42.602;23.468;2022-10-16T08:03:19;93876.19;;;11.46;100.00
6204;BME280;3135;42.602;23.468;2022-10-16T08:05:44;93891.44;;;11.71;100.00
6204;BME280;3135;42.602;23.468;2022-10-16T08:08:13;93905.13;;;11.95;100.00
6204;BME280;3135;42.602;23.468;2022-10-16T08:10:39;93890.91;;;11.85;100.00
6204;BME280;3135;42.602;23.468;2022-10-16T08:13:05;93904.78;;;12.22;100.00
6204;BME280;3135;42.602;23.468;2022-10-16T08:15:30;93885.25;;;12.12;100.00
6204;BME280;3135;42.602;23.468;2022-10-16T08:18:01;93911.16;;;12.42;100.00
6204;BME280;3135;42.602;23.468;2022-10-16T08:20:28;93899.94;;;12.40;100.00
6204;BME280;3135;42.602;23.468;2022-10-16T08:22:54;93904.97;;;12.57;100.00
6204;BME280;3135;42.602;23.468;2022-10-16T08:25:21;93883.25;;;12.58;100.00
6204;BME280;3135;42.602;23.468;2022-10-16T08:27:47;93897.13;;;12.65;100.00
6204;BME280;3135;42.602;23.468;2022-10-16T08:30:13;93913.09;;;12.96;100.00
6204;BME280;3135;42.602;23.468;2022-10-16T08:32:38;93910.47;;;12.86;100.00
6204;BME280;3135;42.602;23.468;2022-10-16T08:35:04;93880.03;;;13.05;99.48
6204;BME280;3135;42.602;23.468;2022-10-16T08:37:30;93894.25;;;13.06;98.44
6204;BME280;3135;42.602;23.468;2022-10-16T08:39:56;93899.63;;;13.06;98.00
6204;BME280;3135;42.602;23.468;2022-10-16T08:48:09;93900.00;;;13.39;98.09
6204;BME280;3135;42.602;23.468;2022-10-16T08:50:41;93915.28;;;13.43;96.86
6204;BME280;3135;42.602;23.468;2022-10-16T08:53:13;93883.66;;;13.30;99.40
6204;BME280;3135;42.602;23.468;2022-10-16T08:55:46;93916.50;;;13.61;94.49
6204;BME280;3135;42.602;23.468;2022-10-16T08:58:19;93915.31;;;13.72;95.50
6204;BME280;3135;42.602;23.468;2022-10-16T09:00:49;93913.69;;;14.05;93.58
6204;BME280;3135;42.602;23.468;2022-10-16T09:08:46;93903.22;;;14.04;94.18
6204;BME280;3135;42.602;23.468;2022-10-16T09:11:21;93922.53;;;14.64;95.15
6204;BME280;3135;42.602;23.468;2022-10-16T09:14:17;93903.97;;;14.87;90.03
6204;BME280;3135;42.602;23.468;2022-10-16T09:16:50;93908.88;;;15.22;88.38
6204;BME280;3135;42.602;23.468;2022-10-16T09:19:27;93924.56;;;15.58;87.40
6204;BME280;3135;42.602;23.468;2022-10-16T09:21:54;93908.94;;;14.98;87.55
6204;BME280;3135;42.602;23.468;2022-10-16T09:24:22;93927.06;;;14.93;88.73
6204;BME280;3135;42.602;23.468;2022-10-16T09:26:50;93917.53;;;14.76;89.48
6204;BME280;3135;42.602;23.468;2022-10-16T09:29:18;93928.72;;;14.89;89.86
6204;BME280;3135;42.602;23.468;2022-10-16T09:31:48;93892.06;;;14.93;90.41
6204;BME280;3135;42.602;23.468;2022-10-16T09:34:34;93920.38;;;15.09;89.48
6204;BME280;3135;42.602;23.468;2022-10-16T09:37:04;93922.72;;;15.16;89.33
6204;BME280;3135;42.602;23.468;2022-10-16T09:39:30;93897.53;;;15.25;89.66
6204;BME280;3135;42.602;23.468;2022-10-16T09:41:56;93896.81;;;15.76;89.39
6204;BME280;3135;42.602;23.468;2022-10-16T09:44:28;93894.84;;;15.63;88.51
6204;BME280;3135;42.602;23.468;2022-10-16T09:47:04;93904.75;;;15.49;90.27
6204;BME280;3135;42.602;23.468;2022-10-16T09:49:31;93909.91;;;15.45;89.95
6204;BME280;3135;42.602;23.468;2022-10-16T09:52:14;93907.88;;;16.07;89.73
6204;BME280;3135;42.602;23.468;2022-10-16T09:54:53;93903.38;;;16.03;90.54
6204;BME280;3135;42.602;23.468;2022-10-16T09:57:20;93883.75;;;15.83;90.57
6204;BME280;3135;42.602;23.468;2022-10-16T09:59:53;93884.97;;;15.91;92.04
6204;BME280;3135;42.602;23.468;2022-10-16T10:02:31;93889.25;;;16.39;88.47
6204;BME280;3135;42.602;23.468;2022-10-16T10:04:59;93897.84;;;16.54;86.61
6204;BME280;3135;42.602;23.468;2022-10-16T10:07:31;93883.66;;;16.49;86.73
6204;BME280;3135;42.602;23.468;2022-10-16T10:10:03;93877.25;;;16.31;87.77
6204;BME280;3135;42.602;23.468;2022-10-16T10:12:31;93879.19;;;16.58;86.26
6204;BME280;3135;42.602;23.468;2022-10-16T10:15:10;93888.47;;;16.38;87.40
6204;BME280;3135;42.602;23.468;2022-10-16T10:17:46;93878.03;;;16.18;86.09
6204;BME280;3135;42.602;23.468;2022-10-16T10:20:28;93886.78;;;16.42;84.15
6204;BME280;3135;42.602;23.468;2022-10-16T10:22:55;93889.28;;;16.66;84.82
6204;BME280;3135;42.602;23.468;2022-10-16T10:31:06;93888.00;;;16.77;83.28
6204;BME280;3135;42.602;23.468;2022-10-16T10:49:46;93891.81;;;16.90;76.76
6204;BME280;3135;42.602;23.468;2022-10-16T10:57:30;93885.97;;;17.47;75.09
6204;BME280;3135;42.602;23.468;2022-10-16T11:00:04;93876.59;;;17.30;76.41
6204;BME280;3135;42.602;23.468;2022-10-16T11:02:43;93864.47;;;17.42;69.48
6204;BME280;3135;42.602;23.468;2022-10-16T11:08:00;93862.16;;;17.49;72.68
6204;BME280;3135;42.602;23.468;2022-10-16T11:10:30;93849.75;;;17.70;71.98
6204;BME280;3135;42.602;23.468;2022-10-16T11:13:14;93854.44;;;17.78;72.71
6204;BME280;3135;42.602;23.468;2022-10-16T11:15:43;93853.56;;;17.47;68.96
6204;BME280;3135;42.602;23.468;2022-10-16T11:18:16;93832.66;;;17.38;68.38
6204;BME280;3135;42.602;23.468;2022-10-16T11:20:57;93858.19;;;17.91;67.38
6204;BME280;3135;42.602;23.468;2022-10-16T11:23:28;93861.19;;;18.12;65.75
6204;BME280;3135;42.602;23.468;2022-10-16T11:25:59;93849.44;;;18.17;63.26
6204;BME280;3135;42.602;23.468;2022-10-16T11:28:31;93855.06;;;17.98;62.34
6204;BME280;3135;42.602;23.468;2022-10-16T11:34:12;93846.16;;;18.06;62.38
6204;BME280;3135;42.602;23.468;2022-10-16T11:36:47;93847.81;;;18.16;61.40
6204;BME280;3135;42.602;23.468;2022-10-16T11:39:19;93851.50;;;18.20;61.22
6204;BME280;3135;42.602;23.468;2022-10-16T11:41:49;93840.91;;;18.01;62.64
6204;BME280;3135;42.602;23.468;2022-10-16T11:49:45;93850.13;;;17.77;63.14
6204;BME280;3135;42.602;23.468;2022-10-16T11:52:20;93849.88;;;17.65;61.70
6204;BME280;3135;42.602;23.468;2022-10-16T11:54:55;93840.91;;;17.56;60.30
6204;BME280;3135;42.602;23.468;2022-10-16T11:57:28;93838.75;;;17.67;60.57
6204;BME280;3135;42.602;23.468;2022-10-16T11:59:58;93844.78;;;17.86;59.62
6204;BME280;3135;42.602;23.468;2022-10-16T12:08:14;93843.13;;;17.76;60.00
6204;BME280;3135;42.602;23.468;2022-10-16T12:10:43;93853.34;;;17.43;57.77
6204;BME280;3135;42.602;23.468;2022-10-16T12:13:38;93845.19;;;17.57;59.29
6204;BME280;3135;42.602;23.468;2022-10-16T12:16:24;93842.13;;;17.27;62.99
6204;BME280;3135;42.602;23.468;2022-10-16T12:19:23;93851.41;;;17.57;60.68
6204;BME280;3135;42.602;23.468;2022-10-16T12:21:48;93851.53;;;17.52;59.65
6204;BME280;3135;42.602;23.468;2022-10-16T12:26:56;93833.41;;;17.17;61.47
6204;BME280;3135;42.602;23.468;2022-10-16T12:29:38;93843.66;;;17.06;62.42
6204;BME280;3135;42.602;23.468;2022-10-16T12:32:28;93843.47;;;17.02;62.75
6204;BME280;3135;42.602;23.468;2022-10-16T12:34:52;93848.28;;;16.92;61.06
6204;BME280;3135;42.602;23.468;2022-10-16T12:37:23;93845.81;;;16.81;61.76
6204;BME280;3135;42.602;23.468;2022-10-16T12:39:54;93829.69;;;16.63;62.70
6204;BME280;3135;42.602;23.468;2022-10-16T12:44:53;93852.41;;;16.89;62.97
6204;BME280;3135;42.602;23.468;2022-10-16T12:47:47;93860.09;;;16.96;63.62
6204;BME280;3135;42.602;23.468;2022-10-16T12:50:33;93858.28;;;17.05;64.08
6204;BME280;3135;42.602;23.468;2022-10-16T12:53:00;93858.88;;;16.88;63.76
6204;BME280;3135;42.602;23.468;2022-10-16T12:55:26;93877.41;;;16.95;63.68
6204;BME280;3135;42.602;23.468;2022-10-16T12:58:06;93858.31;;;16.77;63.88
6204;BME280;3135;42.602;23.468;2022-10-16T13:06:20;93870.81;;;16.73;63.06
6204;BME280;3135;42.602;23.468;2022-10-16T13:20:12;93861.41;;;16.84;65.91
6204;BME280;3135;42.602;23.468;2022-10-16T13:28:01;93865.16;;;17.11;64.47
6204;BME280;3135;42.602;23.468;2022-10-16T13:30:28;93851.66;;;17.11;64.13
6204;BME280;3135;42.602;23.468;2022-10-16T13:33:01;93869.31;;;17.17;63.54
6204;BME280;3135;42.602;23.468;2022-10-16T13:35:30;93873.75;;;17.13;61.94
6204;BME280;3135;42.602;23.468;2022-10-16T13:43:34;93868.84;;;17.15;60.78
6204;BME280;3135;42.602;23.468;2022-10-16T13:46:03;93880.66;;;17.19;60.82
6204;BME280;3135;42.602;23.468;2022-10-16T13:48:31;93883.28;;;16.97;58.10
6204;BME280;3135;42.602;23.468;2022-10-16T13:53:32;93891.50;;;16.78;59.61
6204;BME280;3135;42.602;23.468;2022-10-16T13:55:58;93872.38;;;16.60;60.73
6204;BME280;3135;42.602;23.468;2022-10-16T13:58:25;93872.50;;;16.83;64.04
6204;BME280;3135;42.602;23.468;2022-10-16T14:01:05;93883.72;;;16.76;63.55
6204;BME280;3135;42.602;23.468;2022-10-16T14:03:39;93878.06;;;16.45;63.74
6204;BME280;3135;42.602;23.468;2022-10-16T14:06:12;93868.78;;;16.38;65.66
6204;BME280;3135;42.602;23.468;2022-10-16T14:08:42;93861.59;;;16.33;64.88
6204;BME280;3135;42.602;23.468;2022-10-16T14:11:08;93877.69;;;16.66;68.88
6204;BME280;3135;42.602;23.468;2022-10-16T14:13:39;93889.44;;;16.56;66.00
6204;BME280;3135;42.602;23.468;2022-10-16T14:16:10;93873.34;;;16.09;66.94
6204;BME280;3135;42.602;23.468;2022-10-16T14:18:46;93880.38;;;15.92;66.26
6204;BME280;3135;42.602;23.468;2022-10-16T14:21:15;93888.38;;;15.97;66.76
6204;BME280;3135;42.602;23.468;2022-10-16T14:23:42;93894.06;;;15.95;68.33
6204;BME280;3135;42.602;23.468;2022-10-16T14:28:33;93892.50;;;15.75;69.42
6204;BME280;3135;42.602;23.468;2022-10-16T14:31:00;93891.59;;;15.61;71.25
6204;BME280;3135;42.602;23.468;2022-10-16T14:36:14;93889.47;;;15.25;71.08
6204;BME280;3135;42.602;23.468;2022-10-16T14:38:42;93902.06;;;15.11;74.42
6204;BME280;3135;42.602;23.468;2022-10-16T14:41:08;93877.28;;;15.09;74.38
6204;BME280;3135;42.602;23.468;2022-10-16T14:43:36;93900.13;;;14.93;74.80
6204;BME280;3135;42.602;23.468;2022-10-16T14:46:07;93881.69;;;14.81;75.18
6204;BME280;3135;42.602;23.468;2022-10-16T14:48:36;93904.16;;;14.71;77.89
6204;BME280;3135;42.602;23.468;2022-10-16T14:51:11;93890.38;;;14.54;78.65
6204;BME280;3135;42.602;23.468;2022-10-16T14:53:38;93890.78;;;14.37;79.54
6204;BME280;3135;42.602;23.468;2022-10-16T14:56:17;93896.06;;;14.47;79.67
6204;BME280;3135;42.602;23.468;2022-10-16T14:58:44;93904.75;;;14.68;79.04
6204;BME280;3135;42.602;23.468;2022-10-16T15:01:10;93913.72;;;14.82;79.42
6204;BME280;3135;42.602;23.468;2022-10-16T15:03:37;93910.75;;;14.60;79.15
6204;BME280;3135;42.602;23.468;2022-10-16T15:06:03;93911.53;;;14.61;79.54
6204;BME280;3135;42.602;23.468;2022-10-16T15:08:28;93908.91;;;14.55;81.04